Time;durP1;ratioP1;P1;durP2;ratioP2;P2;SDS_P1;SDS_P2;PMS_P1;PMS_P2;Temp;Humidity;BMP_temperature;BMP_pressure;BME280_temperature;BME280_humidity;BME280_pressure;Samples;Min_cycle;Max_cycle;Signal;HPM_P1;HPM_P2
2022/01/27 00:01:32;;;;;;;28.98;14.85;;;5.70;99.90;;;;;;5157027;27;20038;-84
2022/01/27 00:04:22;;;;;;;34.25;17.45;;;5.70;99.90;;;;;;5156847;27;20087;-84
2022/01/27 00:07:07;;;;;;;33.05;15.50;;;5.70;99.90;;;;;;5157562;27;20042;-84
2022/01/27 00:10:11;;;;;;;36.95;17.52;;;5.70;99.90;;;;;;5127213;27;20165;-84
2022/01/27 00:12:55;;;;;;;29.83;16.63;;;5.70;99.90;;;;;;5141791;27;20087;-83
2022/01/27 00:15:46;;;;;;;35.08;18.17;;;5.70;99.90;;;;;;5141684;27;20509;-85
2022/01/27 00:18:30;;;;;;;32.65;16.95;;;5.70;99.90;;;;;;5121178;27;20176;-84
2022/01/27 00:21:18;;;;;;;41.45;18.42;;;7.60;99.90;;;;;;5120385;27;20042;-84
2022/01/27 00:24:04;;;;;;;30.30;17.08;;;6.10;99.90;;;;;;5136278;27;20050;-84
2022/01/27 00:26:48;;;;;;;37.03;18.85;;;5.70;99.90;;;;;;5140195;27;20390;-84
2022/01/27 00:29:32;;;;;;;34.47;17.35;;;5.60;99.90;;;;;;5126376;27;20041;-84
2022/01/27 00:32:17;;;;;;;34.22;17.52;;;5.70;99.90;;;;;;5126042;27;20084;-85
2022/01/27 00:35:03;;;;;;;35.58;17.55;;;6.00;99.90;;;;;;5126644;27;20500;-84
2022/01/27 00:37:47;;;;;;;41.85;18.95;;;5.60;99.90;;;;;;5156892;27;20034;-84
2022/01/27 00:40:32;;;;;;;37.38;18.20;;;5.70;99.90;;;;;;5126223;27;20098;-84
2022/01/27 00:43:16;;;;;;;36.35;17.95;;;6.20;99.90;;;;;;5140664;27;20444;-85
2022/01/27 00:46:00;;;;;;;36.80;19.15;;;5.70;99.90;;;;;;5140986;27;20171;-84
2022/01/27 00:48:45;;;;;;;36.03;17.33;;;6.20;99.90;;;;;;5105827;27;20449;-84
2022/01/27 00:51:35;;;;;;;37.13;18.08;;;5.80;99.90;;;;;;5119902;27;20115;-84
2022/01/27 00:54:23;;;;;;;38.17;20.88;;;5.60;99.90;;;;;;5134200;27;20042;-85
2022/01/27 00:57:26;;;;;;;36.60;18.33;;;5.60;99.90;;;;;;5107199;27;20050;-84
2022/01/27 01:00:11;;;;;;;35.33;20.00;;;5.60;99.90;;;;;;5122947;27;20081;-84
2022/01/27 01:20:23;;;;;;;35.70;17.92;;;5.70;99.90;;;;;;5135464;27;20088;-84
2022/01/27 01:29:40;;;;;;;34.75;17.77;;;5.60;99.90;;;;;;5143124;27;20050;-84
2022/01/27 01:36:00;;;;;;;40.50;18.08;;;5.60;99.90;;;;;;5136770;27;20052;-84
2022/01/27 01:38:45;;;;;;;32.03;16.88;;;5.60;99.90;;;;;;5139243;27;20045;-84
2022/01/27 01:41:29;;;;;;;32.95;16.05;;;7.00;99.90;;;;;;5124864;27;20061;-85
2022/01/27 01:44:13;;;;;;;33.13;16.80;;;7.10;99.90;;;;;;5155623;27;20041;-84
2022/01/27 01:46:58;;;;;;;31.35;16.35;;;5.70;99.90;;;;;;5139619;27;20042;-83
2022/01/27 01:49:42;;;;;;;32.80;17.10;;;5.80;99.90;;;;;;5139139;27;20393;-84
2022/01/27 01:52:27;;;;;;;32.85;15.80;;;6.20;99.90;;;;;;5154398;27;20558;-85
2022/01/27 01:55:12;;;;;;;28.83;16.35;;;5.60;99.90;;;;;;5138854;27;20387;-85
2022/01/27 01:57:57;;;;;;;33.25;16.95;;;5.60;99.90;;;;;;5139580;27;20037;-84
2022/01/27 02:00:41;;;;;;;35.88;17.55;;;5.60;99.90;;;;;;5124707;27;20038;-84
2022/01/27 02:03:26;;;;;;;31.80;17.48;;;6.30;99.90;;;;;;5139540;27;20501;-85
2022/01/27 02:06:19;;;;;;;36.92;16.92;;;5.50;99.90;;;;;;5110676;27;20045;-83
2022/01/27 02:18:10;;;;;;;29.10;16.90;;;5.50;99.90;;;;;;5142137;27;20037;-84
2022/01/27 02:20:55;;;;;;;39.83;20.80;;;5.60;99.90;;;;;;5154800;27;20052;-84
2022/01/27 02:23:39;;;;;;;35.63;18.77;;;5.50;99.90;;;;;;5138497;27;20091;-84
2022/01/27 02:26:23;;;;;;;34.08;17.55;;;5.50;99.90;;;;;;5154603;27;20049;-85
2022/01/27 02:29:08;;;;;;;38.92;18.00;;;5.60;99.90;;;;;;5139085;27;20526;-84
2022/01/27 02:31:54;;;;;;;35.65;17.85;;;5.60;99.90;;;;;;5138436;27;20090;-84
2022/01/27 02:34:39;;;;;;;33.40;16.05;;;5.70;99.90;;;;;;5153842;27;20037;-84
2022/01/27 02:37:24;;;;;;;33.45;17.85;;;5.70;99.90;;;;;;5154564;27;20037;-84
2022/01/27 02:40:08;;;;;;;;;;;5.60;99.90;;;;;;5139226;27;20042;-84
2022/01/27 02:42:53;;;;;;;40.88;18.92;;;5.60;99.90;;;;;;5154249;27;19972;-84
2022/01/27 02:45:45;;;;;;;38.45;19.90;;;7.00;99.90;;;;;;5123909;27;20137;-84
2022/01/27 02:48:29;;;;;;;45.38;20.08;;;5.60;99.90;;;;;;5138608;27;20086;-84
2022/01/27 02:51:13;;;;;;;35.25;17.70;;;5.60;99.90;;;;;;5138425;27;20517;-84
2022/01/27 02:53:57;;;;;;;33.92;18.70;;;5.60;99.90;;;;;;5138345;27;20061;-85
2022/01/27 02:56:46;;;;;;;;;;;6.30;99.90;;;;;;5154085;27;20089;-84
2022/01/27 02:59:30;;;;;;;34.72;16.40;;;5.60;99.90;;;;;;5138517;27;20369;-85
2022/01/27 03:02:15;;;;;;;34.53;18.92;;;5.70;99.90;;;;;;5154076;27;20045;-85
2022/01/27 03:05:00;;;;;;;33.88;19.85;;;5.70;99.90;;;;;;5121242;27;20050;-84
2022/01/27 03:07:47;;;;;;;35.83;19.45;;;6.40;99.90;;;;;;5123465;27;20122;-84
2022/01/27 03:10:38;;;;;;;36.67;18.38;;;6.00;99.90;;;;;;5154114;27;20058;-84
2022/01/27 03:13:22;;;;;;;36.30;18.13;;;5.80;99.90;;;;;;5154025;27;20088;-84
2022/01/27 03:16:08;;;;;;;33.28;19.48;;;6.80;99.90;;;;;;5124425;27;20460;-84
2022/01/27 03:18:52;;;;;;;39.08;19.52;;;6.50;99.90;;;;;;5142544;27;20041;-84
2022/01/27 03:21:36;;;;;;;;;;;6.80;99.90;;;;;;5143109;27;20046;-84
2022/01/27 03:24:21;;;;;;;;;;;6.50;99.90;;;;;;5158129;27;19913;-84
2022/01/27 03:27:20;;;;;;;42.53;20.73;;;5.90;99.90;;;;;;5142192;27;19964;-84
2022/01/27 03:30:05;;;;;;;37.65;17.70;;;5.90;99.90;;;;;;5142242;27;20043;-84
2022/01/27 03:32:49;;;;;;;34.15;17.67;;;5.80;99.90;;;;;;5141004;27;20061;-84
2022/01/27 03:35:33;;;;;;;35.30;17.80;;;6.30;99.90;;;;;;5137146;27;20145;-84
2022/01/27 03:38:18;;;;;;;;;;;5.80;99.90;;;;;;5121957;27;20084;-84
2022/01/27 03:41:08;;;;;;;33.45;18.80;;;5.80;99.90;;;;;;5146172;27;19914;-84
2022/01/27 03:43:52;;;;;;;35.33;18.65;;;6.00;99.90;;;;;;5157425;27;20197;-84
2022/01/27 03:46:36;;;;;;;;;;;6.00;99.90;;;;;;5142579;27;20041;-84
2022/01/27 03:49:20;;;;;;;34.63;19.77;;;6.90;99.90;;;;;;5142196;27;19918;-84
2022/01/27 03:52:04;;;;;;;44.90;19.25;;;5.80;99.90;;;;;;5141632;27;20050;-84
2022/01/27 03:54:48;;;;;;;32.75;17.25;;;5.80;99.90;;;;;;5120906;27;20092;-84
2022/01/27 03:57:33;;;;;;;34.83;19.27;;;6.20;99.90;;;;;;5106893;27;20391;-84
2022/01/27 04:00:17;;;;;;;;;;;5.80;99.90;;;;;;5141573;27;20033;-85
2022/01/27 04:03:08;;;;;;;34.25;18.25;;;5.80;99.90;;;;;;5157026;27;20473;-85
2022/01/27 04:05:54;;;;;;;40.15;19.27;;;6.20;99.90;;;;;;5127765;27;20494;-84
2022/01/27 04:08:39;;;;;;;39.42;17.60;;;7.20;99.90;;;;;;5142101;27;20046;-84
2022/01/27 04:11:23;;;;;;;36.33;18.90;;;6.80;99.90;;;;;;5157366;27;20113;-84
2022/01/27 04:14:10;;;;;;;29.45;16.98;;;6.40;99.90;;;;;;5141378;27;20549;-84
2022/01/27 04:16:54;;;;;;;36.60;17.98;;;5.90;99.90;;;;;;5156745;27;20083;-84
2022/01/27 04:19:38;;;;;;;41.25;17.85;;;7.00;99.90;;;;;;5157271;27;20214;-84
2022/01/27 04:22:22;;;;;;;;;;;6.70;99.90;;;;;;5157570;27;20086;-84
2022/01/27 04:25:07;;;;;;;32.97;16.70;;;6.20;99.90;;;;;;5140736;27;19917;-84
2022/01/27 04:27:56;;;;;;;37.47;17.38;;;5.90;99.90;;;;;;5140564;27;20390;-84
2022/01/27 04:30:40;;;;;;;33.17;16.40;;;6.00;99.90;;;;;;5141199;27;20530;-84
2022/01/27 04:33:28;;;;;;;33.65;18.05;;;6.10;99.90;;;;;;5156784;27;20069;-85
2022/01/27 04:36:20;;;;;;;47.88;18.50;;;6.10;99.90;;;;;;5141695;27;20111;-84
2022/01/27 04:39:33;;;;;;;37.40;18.10;;;6.00;99.90;;;;;;5140777;27;20073;-84
2022/01/27 04:42:20;;;;;;;39.50;17.73;;;6.00;99.90;;;;;;5156473;27;20061;-84
2022/01/27 04:45:06;;;;;;;32.67;17.30;;;6.00;99.90;;;;;;5156289;27;20064;-85
2022/01/27 04:47:56;;;;;;;31.42;16.38;;;6.00;99.90;;;;;;5140777;27;20034;-85
2022/01/27 04:50:41;;;;;;;38.97;19.50;;;6.10;99.90;;;;;;5127274;27;20061;-85
2022/01/27 04:53:32;;;;;;;32.42;16.40;;;6.50;99.90;;;;;;5126443;27;20093;-84
2022/01/27 04:56:20;;;;;;;34.90;17.10;;;6.10;99.90;;;;;;5127408;27;20046;-85
2022/01/27 04:59:11;;;;;;;32.88;16.20;;;7.00;99.90;;;;;;5156028;27;20034;-85
2022/01/27 05:02:03;;;;;;;41.30;18.75;;;6.20;99.90;;;;;;5155719;27;20085;-85
2022/01/27 05:04:50;;;;;;;35.20;18.00;;;6.50;99.90;;;;;;5156250;27;20037;-84
2022/01/27 05:07:34;;;;;;;32.28;14.85;;;6.60;99.90;;;;;;5141368;27;20122;-84
2022/01/27 05:10:22;;;;;;;36.88;18.05;;;6.00;99.90;;;;;;5156430;27;20116;-84
2022/01/27 05:13:14;;;;;;;30.42;17.90;;;6.00;99.90;;;;;;5155694;27;20042;-84
2022/01/27 05:16:00;;;;;;;38.28;20.00;;;6.60;99.90;;;;;;5139869;27;20045;-84
2022/01/27 05:18:44;;;;;;;37.38;16.55;;;6.00;99.90;;;;;;5139124;27;20038;-84
2022/01/27 05:21:28;;;;;;;42.10;17.35;;;6.00;99.90;;;;;;5140348;27;20106;-84
2022/01/27 05:24:13;;;;;;;33.05;18.73;;;6.80;99.90;;;;;;5138753;27;20314;-84
2022/01/27 05:26:57;;;;;;;33.30;16.75;;;6.10;99.90;;;;;;5155428;27;20045;-85
2022/01/27 05:29:41;;;;;;;33.65;16.17;;;6.10;99.90;;;;;;5155762;27;20128;-84
2022/01/27 05:32:25;;;;;;;38.20;16.30;;;7.40;99.90;;;;;;5140345;27;20391;-84
2022/01/27 05:35:09;;;;;;;;;;;6.10;99.90;;;;;;5155371;27;20103;-84
2022/01/27 05:37:53;;;;;;;37.28;17.30;;;6.50;99.90;;;;;;5155708;27;19942;-85
2022/01/27 05:40:37;;;;;;;42.30;16.83;;;6.10;99.90;;;;;;5139317;27;20395;-84
2022/01/27 05:43:21;;;;;;;;;;;6.10;99.90;;;;;;5125803;27;20054;-84
2022/01/27 05:46:06;;;;;;;37.83;16.92;;;6.00;99.90;;;;;;5155197;27;20003;-84
2022/01/27 05:48:50;;;;;;;47.95;18.55;;;6.00;99.90;;;;;;5139882;27;20034;-84
2022/01/27 05:51:35;;;;;;;44.75;19.20;;;6.00;99.90;;;;;;5139882;27;20033;-84
2022/01/27 05:54:19;;;;;;;38.53;17.27;;;6.40;99.90;;;;;;5124807;27;20514;-84
2022/01/27 05:57:04;;;;;;;39.95;16.63;;;6.00;99.90;;;;;;5154734;27;20099;-84
2022/01/27 05:59:48;;;;;;;38.75;18.38;;;5.90;99.90;;;;;;5122085;27;20036;-84
2022/01/27 06:02:32;;;;;;;;;;;5.90;99.90;;;;;;5134307;27;20084;-84
2022/01/27 06:05:17;;;;;;;37.80;17.38;;;5.90;99.90;;;;;;5153608;27;19919;-84
2022/01/27 06:08:01;;;;;;;50.70;19.52;;;5.90;99.90;;;;;;5138934;27;20038;-84
2022/01/27 06:10:45;;;;;;;43.80;19.23;;;6.30;99.90;;;;;;5139404;27;20058;-85
2022/01/27 06:13:29;;;;;;;;;;;5.80;99.90;;;;;;5120938;27;20091;-85
2022/01/27 06:16:14;;;;;;;46.33;18.42;;;5.90;99.90;;;;;;5118217;27;19923;-85
2022/01/27 06:18:58;;;;;;;48.72;18.83;;;7.00;99.90;;;;;;5103961;27;20391;-85
2022/01/27 06:21:44;;;;;;;40.55;18.17;;;5.80;99.90;;;;;;5132363;27;20065;-84
2022/01/27 06:24:29;;;;;;;42.97;18.27;;;5.80;99.90;;;;;;5138660;27;20033;-84
2022/01/27 06:27:14;;;;;;;47.90;17.25;;;5.80;99.90;;;;;;5138074;27;20177;-84
2022/01/27 06:29:58;;;;;;;41.70;19.10;;;5.90;99.90;;;;;;5154130;27;20082;-84
2022/01/27 06:32:43;;;;;;;44.25;17.27;;;6.70;99.90;;;;;;5123851;27;20038;-85
2022/01/27 06:35:27;;;;;;;42.00;17.13;;;6.50;99.90;;;;;;5137519;27;20091;-84
2022/01/27 06:38:11;;;;;;;;;;;5.90;99.90;;;;;;5138354;27;20042;-84
2022/01/27 06:40:55;;;;;;;30.95;12.20;;;6.00;99.90;;;;;;5135001;27;19918;-83
2022/01/27 06:43:40;;;;;;;41.17;17.02;;;7.20;99.90;;;;;;5108210;27;20049;-85
2022/01/27 06:46:24;;;;;;;45.38;18.02;;;5.90;99.90;;;;;;5151753;27;20037;-85
2022/01/27 06:49:10;;;;;;;33.15;15.60;;;6.90;99.90;;;;;;5120212;27;20041;-85
2022/01/27 06:51:54;;;;;;;37.70;15.32;;;5.90;99.90;;;;;;5153843;27;20030;-87
2022/01/27 06:54:38;;;;;;;;;;;5.90;99.90;;;;;;5153532;27;20078;-86
2022/01/27 06:57:25;;;;;;;31.67;12.57;;;6.00;99.90;;;;;;5137158;27;19926;-86
2022/01/27 07:00:10;;;;;;;37.92;13.63;;;6.00;99.90;;;;;;5152968;27;20121;-86
2022/01/27 07:02:54;;;;;;;29.88;14.07;;;6.00;99.90;;;;;;5137760;27;20057;-86
2022/01/27 07:05:39;;;;;;;33.25;14.40;;;6.40;99.90;;;;;;5117905;27;20088;-84
2022/01/27 07:08:24;;;;;;;30.55;13.10;;;6.10;99.90;;;;;;5152009;27;20571;-86
2022/01/27 07:11:08;;;;;;;31.48;13.18;;;6.50;99.90;;;;;;5107867;28;20058;-85
2022/01/27 07:13:52;;;;;;;;;;;7.60;99.90;;;;;;5117906;28;20038;-87
2022/01/27 07:16:37;;;;;;;29.27;12.65;;;6.20;99.90;;;;;;5133137;28;19923;-86
2022/01/27 07:19:22;;;;;;;37.00;13.32;;;6.20;99.90;;;;;;5132471;27;20046;-86
2022/01/27 07:22:06;;;;;;;;;;;6.10;99.90;;;;;;5118235;28;20123;-85
2022/01/27 07:24:50;;;;;;;30.08;14.00;;;6.20;99.90;;;;;;5106036;28;19956;-86
2022/01/27 07:27:35;;;;;;;28.58;11.55;;;6.20;99.90;;;;;;5117948;28;20182;-86
2022/01/27 07:30:19;;;;;;;27.85;13.38;;;6.20;99.90;;;;;;5117362;28;20518;-86
2022/01/27 07:33:02;;;;;;;;;;;6.30;99.90;;;;;;5122227;27;20115;-86
2022/01/27 07:35:47;;;;;;;30.20;12.27;;;6.30;99.90;;;;;;5138037;27;19922;-86
2022/01/27 07:38:31;;;;;;;27.90;13.00;;;6.60;99.90;;;;;;5151447;27;20073;-87
2022/01/27 07:41:17;;;;;;;27.02;11.93;;;6.30;99.90;;;;;;5152736;27;20114;-87
2022/01/27 07:44:01;;;;;;;27.92;11.70;;;6.40;99.90;;;;;;5137410;27;20069;-87
2022/01/27 07:46:45;;;;;;;;;;;7.00;99.90;;;;;;5154384;27;20038;-87
2022/01/27 07:49:29;;;;;;;27.80;12.18;;;8.00;99.90;;;;;;5137520;27;20007;-86
2022/01/27 07:52:14;;;;;;;26.75;10.88;;;6.40;99.90;;;;;;5153356;27;20034;-85
2022/01/27 07:54:57;;;;;;;;;;;6.40;99.90;;;;;;5154180;27;20042;-86
2022/01/27 07:57:42;;;;;;;20.50;9.23;;;6.50;99.90;;;;;;5138142;27;19955;-86
2022/01/27 08:00:29;;;;;;;25.05;11.98;;;7.50;99.90;;;;;;5137710;27;20441;-87
2022/01/27 08:03:13;;;;;;;28.67;13.07;;;7.80;99.90;;;;;;5156099;27;20110;-86
2022/01/27 08:05:57;;;;;;;;;;;6.50;99.90;;;;;;5158027;27;20041;-86
2022/01/27 08:08:41;;;;;;;37.70;14.23;;;6.50;99.90;;;;;;5156338;27;19956;-86
2022/01/27 08:11:26;;;;;;;36.90;13.52;;;6.50;99.90;;;;;;5156475;27;20042;-86
2022/01/27 08:14:10;;;;;;;33.00;13.07;;;7.60;99.90;;;;;;5157165;27;20038;-87
2022/01/27 08:16:54;;;;;;;;;;;6.70;99.90;;;;;;5141932;27;20081;-86
2022/01/27 08:19:38;;;;;;;30.35;13.90;;;6.70;99.90;;;;;;5156840;27;19965;-86
2022/01/27 08:22:22;;;;;;;34.95;13.32;;;7.80;99.90;;;;;;5126741;27;20493;-86
2022/01/27 08:25:06;;;;;;;;;;;8.50;99.90;;;;;;5141687;27;20122;-86
2022/01/27 08:27:56;;;;;;;30.38;12.30;;;6.80;99.90;;;;;;5157097;27;19914;-86
2022/01/27 08:30:46;;;;;;;31.20;12.43;;;6.80;99.90;;;;;;5134896;27;20340;-85
2022/01/27 08:33:31;;;;;;;40.90;12.52;;;6.80;99.90;;;;;;5137185;27;20403;-86
2022/01/27 08:36:17;;;;;;;27.65;13.00;;;6.90;99.90;;;;;;5131384;27;20095;-86
2022/01/27 08:39:01;;;;;;;30.67;11.23;;;6.90;99.90;;;;;;5112904;27;20098;-86
2022/01/27 08:41:45;;;;;;;31.13;11.57;;;7.00;99.90;;;;;;5155985;27;20062;-86
2022/01/27 08:44:29;;;;;;;35.08;10.43;;;8.80;99.90;;;;;;5136016;27;20463;-85
2022/01/27 08:47:15;;;;;;;35.97;9.77;;;7.50;99.90;;;;;;5138220;27;20091;-84
2022/01/27 08:50:00;;;;;;;26.52;9.80;;;7.60;99.90;;;;;;5144181;27;20034;-86
2022/01/27 08:52:45;;;;;;;30.42;9.48;;;7.70;99.90;;;;;;5156296;27;20034;-87
2022/01/27 08:55:29;;;;;;;23.95;9.25;;;8.40;99.90;;;;;;5123913;27;20049;-86
2022/01/27 08:58:14;;;;;;;27.40;9.57;;;7.50;99.90;;;;;;5156426;27;20114;-86
2022/01/27 09:00:58;;;;;;;31.67;8.90;;;7.70;99.90;;;;;;5156514;27;20041;-85
2022/01/27 09:03:43;;;;;;;33.25;9.30;;;7.50;99.90;;;;;;5140063;27;20074;-85
2022/01/27 09:06:30;;;;;;;22.55;8.40;;;7.50;99.90;;;;;;5155637;27;20028;-85
2022/01/27 09:09:14;;;;;;;23.67;7.90;;;7.50;99.90;;;;;;5140731;27;20042;-85
2022/01/27 09:11:59;;;;;;;21.65;7.80;;;7.90;99.90;;;;;;5139098;27;20164;-85
2022/01/27 09:14:43;;;;;;;27.75;8.77;;;7.80;99.90;;;;;;5138844;27;20090;-86
2022/01/27 09:17:29;;;;;;;25.10;8.82;;;8.00;99.90;;;;;;5108954;27;20073;-86
2022/01/27 09:20:16;;;;;;;23.20;7.38;;;7.60;99.90;;;;;;5140397;27;20037;-85
2022/01/27 09:23:02;;;;;;;25.80;7.13;;;7.70;99.90;;;;;;5140749;27;20038;-86
2022/01/27 09:25:48;;;;;;;28.30;8.05;;;7.70;99.90;;;;;;5141168;27;20042;-85
2022/01/27 09:28:32;;;;;;;28.35;9.57;;;7.70;99.90;;;;;;5118690;27;20061;-85
2022/01/27 09:31:17;;;;;;;27.83;7.72;;;7.70;99.90;;;;;;5135899;27;20087;-86
2022/01/27 09:34:01;;;;;;;;;;;7.80;99.90;;;;;;5139288;27;20042;-86
2022/01/27 09:36:47;;;;;;;23.45;6.93;;;7.80;99.90;;;;;;5139290;27;19970;-85
2022/01/27 09:39:33;;;;;;;24.45;7.00;;;7.80;99.90;;;;;;5155293;27;20045;-86
2022/01/27 09:42:17;;;;;;;23.88;6.88;;;7.90;99.90;;;;;;5139949;27;20084;-86
2022/01/27 09:45:05;;;;;;;28.00;7.50;;;7.90;99.90;;;;;;5139279;27;20395;-86
2022/01/27 09:48:00;;;;;;;25.50;6.53;;;7.90;99.90;;;;;;5154453;27;20045;-85
2022/01/27 09:51:00;;;;;;;26.45;6.18;;;7.90;99.90;;;;;;5127144;27;20034;-86
2022/01/27 09:53:45;;;;;;;17.13;5.63;;;7.90;99.90;;;;;;5127034;27;20045;-87
2022/01/27 09:56:29;;;;;;;25.75;7.47;;;8.00;99.90;;;;;;5123410;27;20257;-86
2022/01/27 09:59:12;;;;;;;;;;;8.70;99.90;;;;;;5139680;27;20542;-85
2022/01/27 10:02:04;;;;;;;22.67;6.90;;;8.00;99.90;;;;;;5137216;27;20278;-85
2022/01/27 10:04:49;;;;;;;23.00;6.13;;;8.00;99.90;;;;;;5154863;27;20108;-86
2022/01/27 10:07:40;;;;;;;17.13;5.70;;;9.10;99.90;;;;;;5154839;27;20038;-86
2022/01/27 10:10:25;;;;;;;18.70;7.05;;;8.10;99.90;;;;;;5138320;27;20042;-86
2022/01/27 10:13:25;;;;;;;23.40;5.95;;;9.40;99.90;;;;;;5139705;27;20095;-86
2022/01/27 10:16:40;;;;;;;15.75;5.57;;;8.20;99.90;;;;;;5154734;27;20049;-86
2022/01/27 10:19:28;;;;;;;22.45;5.45;;;8.20;99.90;;;;;;5139236;27;20090;-86
2022/01/27 10:22:15;;;;;;;21.08;5.45;;;8.30;99.90;;;;;;5154727;27;20032;-86
2022/01/27 10:25:04;;;;;;;25.23;6.03;;;8.30;99.90;;;;;;5154540;27;20034;-86
2022/01/27 10:28:07;;;;;;;21.80;6.07;;;8.30;99.90;;;;;;5138533;27;20038;-86
2022/01/27 10:31:04;;;;;;;21.50;6.43;;;8.30;99.90;;;;;;5125815;27;20053;-86
2022/01/27 10:34:01;;;;;;;22.48;5.22;;;8.30;99.90;;;;;;5154242;27;20114;-86
2022/01/27 10:36:46;;;;;;;20.33;5.47;;;8.40;99.90;;;;;;5124599;27;20087;-86
2022/01/27 10:39:30;;;;;;;21.52;5.28;;;8.40;99.90;;;;;;5138801;27;20106;-85
2022/01/27 10:42:14;;;;;;;;;;;8.40;99.90;;;;;;5124227;27;20052;-85
2022/01/27 10:45:06;;;;;;;21.70;5.78;;;8.40;99.90;;;;;;5133770;27;20369;-86
2022/01/27 10:47:51;;;;;;;16.95;5.40;;;8.40;99.90;;;;;;5128166;27;20033;-85
2022/01/27 10:50:55;;;;;;;;;;;8.50;99.90;;;;;;5154462;27;20062;-85
2022/01/27 10:53:57;;;;;;;22.55;5.28;;;8.50;99.90;;;;;;5138254;27;19934;-85
2022/01/27 10:56:41;;;;;;;18.17;4.70;;;8.50;99.90;;;;;;5137101;27;20485;-86
2022/01/27 10:59:27;;;;;;;;;;;8.60;99.90;;;;;;5118442;27;20058;-86
2022/01/27 11:02:13;;;;;;;15.70;5.32;;;9.20;99.90;;;;;;5150811;27;19955;-86
2022/01/27 11:04:57;;;;;;;23.90;6.50;;;8.60;99.90;;;;;;5139638;27;20037;-86
2022/01/27 11:07:42;;;;;;;15.18;4.40;;;8.60;99.90;;;;;;5138312;27;20457;-85
2022/01/27 11:10:26;;;;;;;21.85;6.25;;;8.70;99.90;;;;;;5138505;27;20033;-85
2022/01/27 11:13:11;;;;;;;20.50;4.60;;;9.00;99.90;;;;;;5154158;27;20086;-85
2022/01/27 11:15:57;;;;;;;13.50;5.55;;;8.70;99.90;;;;;;5123571;27;20053;-86
2022/01/27 11:18:41;;;;;;;22.27;4.47;;;9.00;99.90;;;;;;5135277;27;20399;-85
2022/01/27 11:21:32;;;;;;;25.75;6.03;;;8.80;99.90;;;;;;5123850;27;20073;-88
2022/01/27 11:24:31;;;;;;;16.00;5.15;;;8.80;99.90;;;;;;5137797;27;20443;-85
2022/01/27 11:27:20;;;;;;;14.95;3.50;;;9.30;99.90;;;;;;5153535;27;20455;-84
2022/01/27 11:30:10;;;;;;;19.38;4.20;;;8.80;99.90;;;;;;5138516;27;20505;-85
2022/01/27 11:33:08;;;;;;;17.15;3.38;;;8.80;99.90;;;;;;5153522;27;20084;-84
2022/01/27 11:36:15;;;;;;;18.17;4.07;;;8.80;99.90;;;;;;5137835;27;20049;-84
2022/01/27 11:39:00;;;;;;;18.75;3.70;;;8.90;99.90;;;;;;5120104;27;20176;-85
2022/01/27 11:41:48;;;;;;;20.23;5.07;;;8.90;99.90;;;;;;5137029;27;20422;-85
2022/01/27 11:44:36;;;;;;;17.25;4.22;;;8.90;99.90;;;;;;5121486;27;20046;-84
2022/01/27 11:47:21;;;;;;;21.77;4.45;;;8.90;99.90;;;;;;5121510;27;20084;-85
2022/01/27 11:50:11;;;;;;;18.10;3.65;;;8.90;99.90;;;;;;5114488;27;20038;-85
2022/01/27 11:52:56;;;;;;;16.73;3.88;;;8.90;99.90;;;;;;5119920;27;20070;-84
2022/01/27 11:55:45;;;;;;;17.65;6.05;;;9.00;99.90;;;;;;5155555;27;20482;-84
2022/01/27 11:58:29;;;;;;;19.45;4.43;;;9.00;99.90;;;;;;5157860;27;20131;-84
2022/01/27 12:01:17;;;;;;;22.33;4.65;;;9.00;99.90;;;;;;5132088;27;20042;-84
2022/01/27 12:04:05;;;;;;;14.63;4.00;;;9.10;99.90;;;;;;5129303;27;20033;-84
2022/01/27 12:06:49;;;;;;;28.85;4.60;;;9.00;99.90;;;;;;5157231;27;20050;-84
2022/01/27 12:09:34;;;;;;;;;;;9.20;99.90;;;;;;5142325;27;20069;-84
2022/01/27 12:12:31;;;;;;;19.42;4.60;;;9.10;99.90;;;;;;5140891;27;19956;-85
2022/01/27 12:15:15;;;;;;;19.45;5.03;;;9.10;99.90;;;;;;5142247;27;20086;-84
2022/01/27 12:18:36;;;;;;;23.42;5.57;;;9.10;99.90;;;;;;5156796;27;20061;-84
2022/01/27 12:21:45;;;;;;;23.63;6.03;;;9.10;99.90;;;;;;5154033;27;20118;-87
2022/01/27 12:24:31;;;;;;;19.65;3.83;;;9.10;99.90;;;;;;5141512;27;20077;-87
2022/01/27 12:27:18;;;;;;;20.42;3.63;;;9.00;99.90;;;;;;5157000;27;20599;-86
2022/01/27 12:30:06;;;;;;;22.13;4.63;;;9.00;99.90;;;;;;5141461;27;20045;-87
2022/01/27 12:32:55;;;;;;;19.83;4.00;;;9.00;99.90;;;;;;5156600;27;20034;-87
2022/01/27 12:35:40;;;;;;;27.30;4.93;;;9.00;99.90;;;;;;5141460;27;20462;-87
2022/01/27 12:38:24;;;;;;;20.63;3.67;;;8.90;99.90;;;;;;5120852;27;20058;-86
2022/01/27 12:41:08;;;;;;;17.02;3.80;;;9.00;99.90;;;;;;5105667;27;20037;-87
2022/01/27 12:43:52;;;;;;;;;;;9.00;99.90;;;;;;5120477;27;20055;-86
2022/01/27 12:46:36;;;;;;;21.73;4.22;;;8.90;99.90;;;;;;5120480;27;19952;-88
2022/01/27 12:49:40;;;;;;;21.45;4.30;;;8.90;99.90;;;;;;5120344;27;20131;-87
2022/01/27 12:52:28;;;;;;;19.40;4.05;;;8.90;99.90;;;;;;5136136;27;20031;-86
2022/01/27 12:55:18;;;;;;;11.88;3.70;;;8.90;99.90;;;;;;5121300;27;20065;-87
2022/01/27 12:58:11;;;;;;;24.05;4.30;;;8.90;99.90;;;;;;5156074;27;20037;-87
2022/01/27 13:00:55;;;;;;;24.70;4.18;;;9.00;99.90;;;;;;5126417;27;20085;-87
2022/01/27 13:03:39;;;;;;;18.17;3.83;;;8.90;99.90;;;;;;5140517;27;20041;-87
2022/01/27 13:06:30;;;;;;;14.75;3.45;;;8.90;99.90;;;;;;5119941;27;20049;-88
2022/01/27 13:09:14;;;;;;;14.07;3.80;;;8.90;99.90;;;;;;5119640;27;20399;-86
2022/01/27 13:12:15;;;;;;;17.75;3.85;;;9.00;99.90;;;;;;5105169;27;20038;-88
2022/01/27 13:15:12;;;;;;;19.35;3.80;;;9.00;99.90;;;;;;5132273;27;20037;-84
2022/01/27 13:18:07;;;;;;;23.40;4.47;;;9.00;99.90;;;;;;5141940;27;20444;-85
2022/01/27 13:20:55;;;;;;;27.05;4.63;;;9.00;99.90;;;;;;5140329;27;20045;-85
2022/01/27 13:23:45;;;;;;;18.33;3.00;;;9.00;99.90;;;;;;5141097;27;20095;-85
2022/01/27 13:26:30;;;;;;;21.27;3.55;;;9.00;99.90;;;;;;5121914;27;20065;-86
2022/01/27 13:29:19;;;;;;;17.42;3.08;;;9.20;99.90;;;;;;5119257;27;20046;-86
2022/01/27 13:32:05;;;;;;;28.85;4.95;;;9.00;99.90;;;;;;5146380;27;20049;-85
2022/01/27 13:34:50;;;;;;;27.45;3.92;;;9.00;99.90;;;;;;5136624;27;20113;-86
2022/01/27 13:37:35;;;;;;;18.85;4.68;;;9.00;99.90;;;;;;5124504;27;20130;-86
2022/01/27 13:43:40;;;;;;;16.48;3.40;;;9.00;99.90;;;;;;5142123;27;20053;-85
2022/01/27 13:46:43;;;;;;;19.27;4.93;;;9.00;99.90;;;;;;5139963;27;20125;-85
2022/01/27 13:49:32;;;;;;;21.55;3.85;;;9.00;99.90;;;;;;5155453;27;20461;-85
2022/01/27 13:52:17;;;;;;;20.70;4.35;;;9.50;99.90;;;;;;5154950;27;20502;-85
2022/01/27 13:55:08;;;;;;;20.98;3.70;;;9.00;99.90;;;;;;5154818;27;20075;-85
2022/01/27 13:58:00;;;;;;;22.00;4.50;;;9.00;99.90;;;;;;5155404;27;20102;-85
2022/01/27 14:00:51;;;;;;;20.23;3.38;;;8.90;99.90;;;;;;5138677;27;20059;-85
2022/01/27 14:03:46;;;;;;;20.55;4.45;;;8.90;99.90;;;;;;5139587;27;20037;-84
2022/01/27 14:06:30;;;;;;;27.95;4.57;;;8.90;99.90;;;;;;5155181;27;20558;-85
2022/01/27 14:09:17;;;;;;;23.23;4.40;;;9.00;99.90;;;;;;5154599;27;20347;-85
2022/01/27 14:12:05;;;;;;;16.80;3.38;;;8.90;99.90;;;;;;5138978;27;20104;-85
2022/01/27 14:14:51;;;;;;;18.75;3.97;;;8.90;99.90;;;;;;5139441;27;20041;-85
2022/01/27 14:17:35;;;;;;;34.60;5.45;;;8.90;99.90;;;;;;5154846;27;20102;-85
2022/01/27 14:20:20;;;;;;;18.05;3.40;;;8.90;99.90;;;;;;5154075;27;20082;-85
2022/01/27 14:23:17;;;;;;;20.42;5.28;;;8.90;99.90;;;;;;5138389;27;20126;-84
2022/01/27 14:26:07;;;;;;;16.17;3.33;;;8.90;99.90;;;;;;5138417;27;20036;-85
2022/01/27 14:28:53;;;;;;;20.83;4.00;;;8.80;99.90;;;;;;5154853;27;20037;-84
2022/01/27 14:31:43;;;;;;;20.52;3.83;;;8.90;99.90;;;;;;5138712;27;20118;-85
2022/01/27 14:34:34;;;;;;;20.17;3.78;;;8.80;99.90;;;;;;5148895;27;20029;-84
2022/01/27 14:37:18;;;;;;;17.33;3.08;;;8.80;99.90;;;;;;5141464;27;20121;-85
2022/01/27 14:40:06;;;;;;;;;;;8.80;99.90;;;;;;5139279;27;20041;-85
2022/01/27 14:42:51;;;;;;;16.02;3.28;;;8.80;99.90;;;;;;5154614;27;19922;-84
2022/01/27 14:45:36;;;;;;;15.52;3.70;;;8.80;99.90;;;;;;5138066;27;20073;-84
2022/01/27 14:48:20;;;;;;;24.15;4.25;;;8.80;99.90;;;;;;5138169;27;20146;-85
2022/01/27 14:51:05;;;;;;;15.57;3.03;;;8.70;99.90;;;;;;5138590;27;20055;-85
2022/01/27 14:53:49;;;;;;;21.08;3.25;;;8.70;99.90;;;;;;5124353;27;20038;-85
2022/01/27 14:56:34;;;;;;;21.27;4.22;;;8.70;99.90;;;;;;5138505;27;20171;-85
2022/01/27 14:59:20;;;;;;;25.88;5.15;;;8.60;99.90;;;;;;5138163;27;20455;-84
2022/01/27 15:02:04;;;;;;;23.35;3.97;;;8.50;99.90;;;;;;5138194;27;20085;-84
2022/01/27 15:04:48;;;;;;;23.60;3.83;;;8.60;99.90;;;;;;5152148;27;20061;-84
2022/01/27 15:07:33;;;;;;;17.38;4.20;;;8.50;99.90;;;;;;5123664;27;20046;-85
2022/01/27 15:10:20;;;;;;;20.67;5.95;;;8.50;99.90;;;;;;5117417;28;20040;-85
2022/01/27 15:13:04;;;;;;;26.67;7.22;;;8.40;99.90;;;;;;5116916;28;20171;-84